Flight Track Log - Related Links

Times and Time Zones

All times are in EDT time to prevent confusion due to time zone crossing. See the BOE521 flight status page for this flight to view local times or setup timezone preferences in your user account.

Time Position Orientation Groundspeed Altitude Reporting Facility
EDT Latitude Longitude Course Direction KTS MPH feet Rate Location/Type
Fri 12:39:02 PM 29.2758 -98.5860 243° Southwest 270 311 7,500  Level FlightAware ADS-B
Fri 12:39:57 PM 29.2830 -98.6690 276° West 299 344 10,800 3,259 Climbing FlightAware ADS-B
Fri 12:40:23 PM 29.3080 -98.6990 314° West 334 384 11,900 1,161 Climbing FlightAware ADS-B
Fri 12:40:59 PM 29.3670 -98.7180 344° North 381 438 12,000 71 Climbing FlightAware ADS-B
Fri 12:41:47 PM 29.4570 -98.7420 347° North 420 483 12,000  Level FlightAware ADS-B
Fri 12:42:31 PM 29.5400 -98.7640 347° North 419 482 12,000  Level FlightAware ADS-B
Fri 12:43:12 PM 29.6100 -98.7820 347° North 419 482 12,000 476 Level FlightAware ADS-B
Fri 12:43:34 PM 29.6592 -98.7949 347° North 422 486 12,500 741 Climbing FlightAware ADS-B
Fri 12:44:33 PM 29.7720 -98.8260 347° North 427 491 13,000 416 Climbing FlightAware ADS-B
Fri 12:45:15 PM 29.8540 -98.8480 347° North 430 495 13,200 1,535 Climbing FlightAware ADS-B
Fri 12:45:59 PM 29.9360 -98.8840 339° North 442 509 15,200 3,140 Climbing FlightAware ADS-B
Fri 12:46:41 PM 29.9960 -98.9540 315° West 447 514 17,700 3,488 Climbing FlightAware ADS-B
Fri 12:47:25 PM 30.0530 -99.0360 309° West 456 525 20,200 3,146 Climbing FlightAware ADS-B
Fri 12:48:03 PM 30.1050 -99.1100 309° West 468 539 22,000 2,658 Climbing FlightAware ADS-B
Fri 12:48:44 PM 30.1610 -99.1910 309° West 484 557 23,700 2,581 Climbing FlightAware ADS-B
Fri 12:49:29 PM 30.2250 -99.2820 309° West 492 566 25,700 2,329 Climbing FlightAware ADS-B
Fri 12:50:09 PM 30.2830 -99.3640 309° West 507 583 27,000 2,786 Climbing FlightAware ADS-B
Fri 12:50:53 PM 30.3500 -99.4580 310° West 494 568 29,600 3,459 Climbing FlightAware ADS-B
Fri 12:51:34 PM 30.4150 -99.5290 317° Northwest 486 559 31,900 3,176 Climbing FlightAware ADS-B
Fri 12:52:18 PM 30.4910 -99.6010 321° Northwest 475 547 34,100 2,857 Climbing FlightAware ADS-B
Fri 12:52:58 PM 30.5600 -99.6640 322° Northwest 468 539 35,900 2,214 Climbing FlightAware ADS-B
Fri 12:53:42 PM 30.6350 -99.7350 321° Northwest 469 540 37,200 1,800 Climbing FlightAware ADS-B
Fri 12:54:18 PM 30.6950 -99.7910 321° Northwest 467 537 38,300 1,704 Climbing FlightAware ADS-B
Fri 12:55:03 PM 30.7700 -99.8620 321° Northwest 467 537 39,500 1,159 Climbing FlightAware ADS-B
Fri 12:55:46 PM 30.8440 -99.9320 321° Northwest 476 548 40,000 345 Climbing FlightAware ADS-B
Fri 12:56:30 PM 30.9180 -100.0010 321° Northwest 483 556 40,000  Level FlightAware ADS-B
Fri 12:57:10 PM 30.9880 -100.0680 321° Northwest 484 557 40,000  Level FlightAware ADS-B
Fri 12:57:52 PM 31.0610 -100.1360 321° Northwest 484 557 40,000  Level FlightAware ADS-B
Fri 12:58:24 PM 31.1170 -100.1900 320° Northwest 483 556 40,000  Level FlightAware ADS-B
Fri 12:59:04 PM 31.1860 -100.2550 321° Northwest 480 552 40,000  Level FlightAware ADS-B
Fri 12:59:44 PM 31.2550 -100.3210 321° Northwest 476 548 40,000  Level FlightAware ADS-B
Fri 01:00:21 PM 31.3110 -100.3750 321° Northwest 473 544 40,000  Level FlightAware ADS-B
Fri 01:01:10 PM 31.4000 -100.4600 321° Northwest 472 543 40,000  Level FlightAware ADS-B
Fri 01:01:50 PM 31.4680 -100.5260 320° Northwest 473 544 40,000  Level FlightAware ADS-B
Fri 01:02:30 PM 31.5350 -100.5900 321° Northwest 473 544 40,000  Level FlightAware ADS-B
Fri 01:03:14 PM 31.6000 -100.6520 321° Northwest 473 544 40,000  Level FlightAware ADS-B
Fri 01:03:54 PM 31.6740 -100.7240 320° Northwest 469 540 40,000  Level FlightAware ADS-B
Fri 01:04:39 PM 31.7500 -100.7970 321° Northwest 468 539 40,000  Level FlightAware ADS-B
Fri 01:05:52 PM 31.8570 -100.9010 320° Northwest 471 542 40,000  Level FlightAware ADS-B
Fri 01:06:34 PM 31.9460 -100.9870 321° Northwest 472 543 40,000  Level FlightAware ADS-B
Fri 01:07:18 PM 32.0200 -101.0590 320° Northwest 472 543 40,000  Level FlightAware ADS-B
Fri 01:07:58 PM 32.0860 -101.1230 321° Northwest 469 540 40,000  Level FlightAware ADS-B
Fri 01:08:42 PM 32.1600 -101.1960 320° Northwest 467 537 40,000  Level FlightAware ADS-B
Fri 01:09:21 PM 32.2230 -101.2580 320° Northwest 466 536 40,000  Level FlightAware ADS-B
Fri 01:10:00 PM 32.2880 -101.3220 320° Northwest 465 535 40,000  Level FlightAware ADS-B
Fri 01:10:53 PM 32.3680 -101.4010 320° Northwest 465 535 40,000  Level FlightAware ADS-B
Fri 01:11:45 PM 32.4600 -101.4910 320° Northwest 460 529 40,000  Level FlightAware ADS-B
Fri 01:12:24 PM 32.5240 -101.5550 320° Northwest 459 528 40,000  Level FlightAware ADS-B
Fri 01:13:06 PM 32.5940 -101.6240 320° Northwest 459 528 40,000  Level FlightAware ADS-B
Fri 01:13:50 PM 32.6650 -101.6950 320° Northwest 457 526 40,000  Level FlightAware ADS-B
Fri 01:14:30 PM 32.7310 -101.7600 320° Northwest 458 527 40,000  Level FlightAware ADS-B
Fri 01:15:10 PM 32.7920 -101.8210 320° Northwest 456 525 40,000  Level FlightAware ADS-B
Fri 01:15:56 PM 32.8690 -101.8980 320° Northwest 455 524 40,000  Level FlightAware ADS-B
Fri 01:16:49 PM 32.9460 -101.9770 319° Northwest 454 522 40,000  Level FlightAware ADS-B
Fri 01:17:30 PM 33.0200 -102.0490 321° Northwest 454 522 40,000  Level FlightAware ADS-B
Fri 01:18:32 PM 33.1120 -102.1430 319° Northwest 454 522 40,000  Level FlightAware ADS-B
Fri 01:19:10 PM 33.1630 -102.1960 319° Northwest 454 522 40,000  Level FlightAware ADS-B
Fri 01:19:45 PM 33.2100 -102.2450 319° Northwest 454 522 40,000  Level FlightAware ADS-B
Fri 01:20:36 PM 33.2790 -102.3160 319° Northwest 454 522 40,000  Level FlightAware ADS-B
Fri 01:21:12 PM 33.3270 -102.3670 318° Northwest 454 522 40,000  Level FlightAware ADS-B
Fri 01:22:01 PM 33.3930 -102.4360 319° Northwest 454 522 40,000  Level FlightAware ADS-B
Fri 01:22:37 PM 33.4420 -102.4860 320° Northwest 454 522 40,000  Level FlightAware ADS-B
Fri 01:23:24 PM 33.5050 -102.5520 319° Northwest 454 522 40,000  Level FlightAware ADS-B
Fri 01:24:01 PM 33.5550 -102.6040 319° Northwest 454 522 40,000  Level FlightAware ADS-B
Fri 01:24:46 PM 33.6160 -102.6670 319° Northwest 454 522 40,000  Level FlightAware ADS-B
Fri 01:25:26 PM 33.6700 -102.7240 319° Northwest 454 522 40,000  Level FlightAware ADS-B
Fri 01:26:18 PM 33.7400 -102.7970 319° Northwest 454 522 40,000  Level FlightAware ADS-B
Fri 01:27:07 PM 33.8060 -102.8660 319° Northwest 454 522 40,000  Level FlightAware ADS-B
Fri 01:27:42 PM 33.8530 -102.9150 319° Northwest 454 522 40,000  Level FlightAware ADS-B
Fri 01:28:54 PM 34.1158 -103.1608 319° Northwest 454 522 40,000  Level Albuquerque Center
Fri 01:29:57 PM 34.2106 -103.2636 318° Northwest 458 527 40,000  Level Albuquerque Center
Fri 01:30:58 PM 34.3069 -103.3683 318° Northwest 457 526 40,000  Level Albuquerque Center
Fri 01:32:01 PM 34.4072 -103.4683 321° Northwest 461 531 40,000  Level Albuquerque Center
Fri 01:33:03 PM 34.5200 -103.5889 319° Northwest 461 531 40,000  Level Albuquerque Center
Fri 01:34:06 PM 34.6133 -103.6936 317° Northwest 455 524 40,000  Level Albuquerque Center
Fri 01:35:08 PM 34.7097 -103.7939 319° Northwest 452 520 40,000  Level Albuquerque Center
Fri 01:36:08 PM 34.8033 -103.8936 319° Northwest 446 513 40,000 293 Level Albuquerque Center
Fri 01:37:11 PM 34.8983 -103.9950 319° Northwest 447 514 40,600 726 Climbing Albuquerque Center
Fri 01:38:12 PM 34.9958 -104.0994 319° Northwest 456 525 41,500 672 Climbing Albuquerque Center
Fri 01:39:16 PM 35.1050 -104.2156 319° Northwest 466 536 42,000 240 Climbing Albuquerque Center
Fri 01:40:17 PM 35.1983 -104.3164 319° Northwest 455 524 42,000  Level Albuquerque Center
Fri 01:41:20 PM 35.2908 -104.4175 318° Northwest 448 516 42,000  Level Albuquerque Center
Fri 01:42:20 PM 35.3819 -104.5175 318° Northwest 446 513 42,000  Level Albuquerque Center
Fri 01:43:22 PM 35.4761 -104.6192 319° Northwest 445 512 42,000  Level Albuquerque Center
Fri 01:44:26 PM 35.5850 -104.7386 318° Northwest 445 512 42,000  Level Albuquerque Center
Fri 01:45:26 PM 35.6764 -104.8394 318° Northwest 440 506 42,000  Level Albuquerque Center
Fri 01:46:28 PM 35.7686 -104.9397 319° Northwest 438 504 42,000  Level Albuquerque Center
Fri 01:47:29 PM 35.8597 -105.0414 318° Northwest 439 505 42,000  Level Albuquerque Center
Fri 01:48:32 PM 35.9525 -105.1417 319° Northwest 439 505 42,000  Level Albuquerque Center
Fri 01:49:33 PM 36.0447 -105.2436 318° Northwest 440 506 42,000  Level Albuquerque Center
Fri 01:50:36 PM 36.1383 -105.3472 318° Northwest 445 512 42,000 -48 Level Albuquerque Center
Fri 01:51:38 PM 36.2331 -105.4525 318° Northwest 451 519 41,900  Descending Albuquerque Center
Fri 01:52:39 PM 36.3336 -105.5661 318° Northwest 446 513 42,000 48 Climbing Albuquerque Center
Fri 01:53:42 PM 36.4228 -105.6639 319° Northwest 433 498 42,000  Level Albuquerque Center
Fri 01:54:43 PM 36.5097 -105.7650 317° Northwest 430 495 42,000  Level Albuquerque Center
Fri 01:55:46 PM 36.6006 -105.8669 318° Northwest 422 486 42,000  Level Albuquerque Center
Fri 01:56:33 PM 36.6628 -105.9378 318° Northwest 417 480 42,000  Level Denver Center
Fri 01:57:35 PM 36.7711 -106.0606 318° Northwest 423 487 42,000  Level Denver Center
Fri 01:58:37 PM 36.8558 -106.1575 318° Northwest 429 494 42,000  Level Denver Center
Fri 01:59:39 PM 36.9514 -106.2678 317° Northwest 437 503 42,000  Level Denver Center
Fri 02:05:38 PM 37.4500 -106.8460 317° Northwest 42,000  Level FlightAware ADS-B
Fri 02:06:49 PM 37.5720 -106.9910 317° Northwest 425 489 42,000  Level FlightAware ADS-B
Fri 02:07:29 PM 37.6230 -107.0500 318° Northwest 425 489 42,000  Level FlightAware ADS-B
Fri 02:08:08 PM 37.6820 -107.1200 317° Northwest 423 487 42,000  Level FlightAware ADS-B
Fri 02:08:48 PM 37.7540 -107.2060 317° Northwest 423 487 42,000  Level FlightAware ADS-B
Fri 02:09:33 PM 37.8140 -107.2760 317° Northwest 427 491 42,000  Level FlightAware ADS-B
Fri 02:10:13 PM 37.8780 -107.3520 317° Northwest 430 495 42,000  Level FlightAware ADS-B
Fri 02:11:18 PM 37.9350 -107.4220 316° Northwest 430 495 42,000  Level FlightAware ADS-B
Fri 02:11:54 PM 37.9790 -107.4750 316° Northwest 430 495 42,000  Level FlightAware ADS-B
Fri 02:12:35 PM 38.0820 -107.5960 317° Northwest 450 518 42,000  Level FlightAware ADS-B
Fri 02:13:23 PM 38.1570 -107.6850 317° Northwest 447 514 42,000  Level FlightAware ADS-B
Fri 02:14:00 PM 38.2100 -107.7490 317° Northwest 444 511 42,000  Level FlightAware ADS-B
Fri 02:14:59 PM 38.2920 -107.8500 316° Northwest 443 510 42,000  Level FlightAware ADS-B
Fri 02:16:19 PM 38.3580 -107.9300 316° Northwest 439 505 42,000  Level FlightAware ADS-B
Fri 02:17:16 PM 38.4870 -108.0860 317° Northwest 432 497 42,000  Level FlightAware ADS-B
Fri 02:18:03 PM 38.5700 -108.1870 316° Northwest 437 503 42,000  Level FlightAware ADS-B
Fri 02:18:38 PM 38.6170 -108.2450 316° Northwest 438 504 42,000  Level FlightAware ADS-B
Fri 02:19:23 PM 38.6790 -108.3210 316° Northwest 435 501 42,000  Level FlightAware ADS-B
Fri 02:20:04 PM 38.7420 -108.3980 316° Northwest 443 510 42,000  Level FlightAware ADS-B
Fri 02:20:49 PM 38.8130 -108.4860 316° Northwest 445 512 42,000  Level FlightAware ADS-B
Fri 02:21:34 PM 38.8770 -108.5650 316° Northwest 444 511 42,000  Level FlightAware ADS-B
Fri 02:22:09 PM 38.9240 -108.6230 316° Northwest 444 511 42,000  Level FlightAware ADS-B
Fri 02:23:09 PM 39.0190 -108.7420 316° Northwest 442 509 42,000  Level FlightAware ADS-B
Fri 02:23:53 PM 39.0710 -108.8090 315° West 442 509 42,000  Level FlightAware ADS-B
Fri 02:24:30 PM 39.1170 -108.8670 316° Northwest 442 509 42,000  Level FlightAware ADS-B
Fri 02:25:24 PM 39.2110 -108.9770 318° Northwest 42,000  Level FlightAware ADS-B
Fri 02:26:24 PM 39.2830 -109.0650 317° Northwest 437 503 42,000  Level FlightAware ADS-B
Fri 02:27:02 PM 39.3510 -109.1490 316° Northwest 437 503 42,000  Level FlightAware ADS-B
Fri 02:27:51 PM 39.4110 -109.2250 316° Northwest 437 503 42,000  Level FlightAware ADS-B
Fri 02:28:27 PM 39.4560 -109.2800 317° Northwest 437 503 42,000  Level FlightAware ADS-B
Fri 02:29:15 PM 39.5150 -109.3550 316° Northwest 437 503 42,000  Level FlightAware ADS-B
Fri 02:29:51 PM 39.5600 -109.4100 317° Northwest 437 503 42,000  Level FlightAware ADS-B
Fri 02:31:37 PM 39.6910 -109.5750 316° Northwest 437 503 42,000  Level FlightAware ADS-B
Fri 02:32:16 PM 39.7390 -109.6350 316° Northwest 437 503 42,000  Level FlightAware ADS-B
Fri 02:32:53 PM 39.7850 -109.6930 316° Northwest 437 503 42,000  Level FlightAware ADS-B
Fri 02:33:39 PM 39.8410 -109.7640 316° Northwest 437 503 42,000  Level FlightAware ADS-B
Fri 02:34:15 PM 39.8860 -109.8200 316° Northwest 437 503 42,000  Level FlightAware ADS-B
Fri 02:35:04 PM 39.9460 -109.8970 315° West 437 503 42,000  Level FlightAware ADS-B
Fri 02:35:38 PM 39.9890 -109.9500 317° Northwest 437 503 42,000  Level FlightAware ADS-B
Fri 02:36:27 PM 40.0490 -110.0260 316° Northwest 437 503 42,000  Level FlightAware ADS-B
Fri 02:37:28 PM 40.2483 -110.2736 316° Northwest 430 495 42,000  Level Salt Lake Center
Fri 02:42:47 PM 40.7150 -110.8740 316° Northwest 447 514 42,000  Level FlightAware ADS-B
Fri 02:43:37 PM 40.7820 -110.9620 315° West 449 517 42,000  Level FlightAware ADS-B
Fri 02:44:26 PM 40.8430 -111.0430 315° West 449 517 42,000  Level FlightAware ADS-B
Fri 02:45:02 PM 40.8880 -111.1030 315° West 449 517 42,000  Level FlightAware ADS-B
Fri 02:45:46 PM 40.9430 -111.1750 315° West 449 517 42,000  Level FlightAware ADS-B
Fri 02:46:29 PM 41.0400 -111.3010 316° Northwest 447 514 42,000  Level FlightAware ADS-B
Fri 02:47:42 PM 41.1320 -111.4230 315° West 448 516 42,000  Level FlightAware ADS-B
Fri 02:48:17 PM 41.1980 -111.5110 315° West 446 513 42,000  Level FlightAware ADS-B
Fri 02:48:57 PM 41.2470 -111.5790 314° West 446 513 42,000  Level FlightAware ADS-B
Fri 02:49:48 PM 41.3090 -111.6640 314° West 446 513 42,000  Level FlightAware ADS-B
Fri 02:50:30 PM 41.3600 -111.7350 314° West 446 513 42,000  Level FlightAware ADS-B
Fri 02:51:04 PM 41.4020 -111.7920 314° West 446 513 42,000  Level FlightAware ADS-B
Fri 02:51:53 PM 41.4610 -111.8740 314° West 446 513 42,000  Level FlightAware ADS-B
Fri 02:52:27 PM 41.5030 -111.9320 314° West 446 513 42,000  Level FlightAware ADS-B
Fri 02:53:16 PM 41.5630 -112.0140 314° West 446 513 42,000  Level FlightAware ADS-B
Fri 02:53:52 PM 41.6060 -112.0750 313° West 446 513 42,000  Level FlightAware ADS-B
Fri 02:54:38 PM 41.6620 -112.1530 314° West 446 513 42,000  Level FlightAware ADS-B
Fri 02:55:17 PM 41.7100 -112.2190 314° West 446 513 42,000  Level FlightAware ADS-B
Fri 02:56:04 PM 41.7670 -112.2980 314° West 446 513 42,000  Level FlightAware ADS-B
Fri 02:57:02 PM 41.8380 -112.3960 314° West 446 513 42,000  Level FlightAware ADS-B
Fri 02:57:39 PM 41.8830 -112.4590 314° West 446 513 42,000  Level FlightAware ADS-B
Fri 02:58:16 PM 41.9280 -112.5220 314° West 446 513 42,000  Level FlightAware ADS-B
Fri 02:59:10 PM 42.1286 -112.7772 314° West 443 510 42,000  Level Salt Lake Center
Fri 03:00:12 PM 42.2131 -112.8972 314° West 442 509 42,000  Level Salt Lake Center
Fri 03:01:15 PM 42.3164 -113.0397 314° West 444 511 42,000  Level Salt Lake Center
Fri 03:02:18 PM 42.4014 -113.1597 314° West 443 510 42,000  Level Salt Lake Center
Fri 03:03:19 PM 42.4867 -113.2814 314° West 444 511 42,000  Level Salt Lake Center
Fri 03:04:20 PM 42.5719 -113.4011 314° West 443 510 42,000  Level Salt Lake Center
Fri 03:05:22 PM 42.6578 -113.5233 314° West 447 514 42,000  Level Salt Lake Center
Fri 03:06:24 PM 42.7492 -113.6544 314° West 445 512 42,000  Level Salt Lake Center
Fri 03:07:26 PM 42.8439 -113.7919 313° West 445 512 42,000  Level Salt Lake Center
Fri 03:08:28 PM 42.9275 -113.9172 312° West 445 512 42,000  Level Salt Lake Center
Fri 03:09:30 PM 43.0117 -114.0408 313° West 445 512 42,000  Level Salt Lake Center
Fri 03:10:32 PM 43.0961 -114.1633 313° West 444 511 42,000  Level Salt Lake Center
Fri 03:11:34 PM 43.1914 -114.2969 314° West 453 521 42,000  Level Salt Lake Center
Fri 03:12:36 PM 43.2708 -114.4158 313° West 442 509 42,000  Level Salt Lake Center
Fri 03:13:38 PM 43.3639 -114.5542 313° West 442 509 42,000  Level Salt Lake Center
Fri 03:14:40 PM 43.4442 -114.6742 313° West 446 513 42,000  Level Salt Lake Center
Fri 03:15:42 PM 43.5378 -114.8117 313° West 440 506 42,000  Level Salt Lake Center
Fri 03:16:44 PM 43.6167 -114.9297 313° West 438 504 42,000  Level Salt Lake Center
Fri 03:17:45 PM 43.7081 -115.0669 313° West 435 501 42,000  Level Salt Lake Center
Fri 03:18:47 PM 43.7858 -115.1842 313° West 434 499 42,000  Level Salt Lake Center
Fri 03:19:49 PM 43.8633 -115.3008 313° West 430 495 42,000  Level Salt Lake Center
Fri 03:20:51 PM 43.9533 -115.4389 312° West 432 497 42,000  Level Salt Lake Center
Fri 03:21:53 PM 44.0308 -115.5578 312° West 433 498 42,000  Level Salt Lake Center
Fri 03:22:55 PM 44.1228 -115.6978 312° West 438 504 42,000  Level Salt Lake Center
Fri 03:23:57 PM 44.2000 -115.8183 312° West 436 502 42,000  Level Salt Lake Center
Fri 03:24:59 PM 44.2894 -115.9572 312° West 432 497 42,000  Level Salt Lake Center
Fri 03:26:01 PM 44.3661 -116.0803 311° West 435 501 42,000  Level Salt Lake Center
Fri 03:27:02 PM 44.4492 -116.2056 313° West 444 511 42,000  Level Salt Lake Center
Fri 03:28:04 PM 44.5425 -116.3581 311° West 444 511 42,000  Level Salt Lake Center
Fri 03:29:06 PM 44.6203 -116.4797 312° West 439 505 42,000  Level Salt Lake Center
Fri 03:30:08 PM 44.6958 -116.5997 312° West 431 496 42,000  Level Salt Lake Center
Fri 03:35:41 PM 45.1480 -117.3280 312° West 433 498 42,000  Level FlightAware ADS-B
Fri 03:36:20 PM 45.2000 -117.4080 313° West 435 501 42,000  Level FlightAware ADS-B
Fri 03:37:00 PM 45.2650 -117.4800 322° Northwest 440 506 42,000  Level FlightAware ADS-B
Fri 03:37:40 PM 45.3300 -117.5460 324° Northwest 440 506 42,000  Level FlightAware ADS-B
Fri 03:38:26 PM 45.4080 -117.6240 325° Northwest 439 505 42,000  Level FlightAware ADS-B
Fri 03:39:08 PM 45.4780 -117.6940 325° Northwest 442 509 42,000  Level FlightAware ADS-B
Fri 03:39:50 PM 45.5480 -117.7640 325° Northwest 446 513 42,000  Level FlightAware ADS-B
Fri 03:40:28 PM 45.6130 -117.8300 325° Northwest 450 518 42,000  Level FlightAware ADS-B
Fri 03:41:08 PM 45.6800 -117.8980 325° Northwest 451 519 42,000  Level FlightAware ADS-B
Fri 03:41:54 PM 45.7580 -117.9780 324° Northwest 450 518 42,000  Level FlightAware ADS-B
Fri 03:42:38 PM 45.8330 -118.0530 325° Northwest 452 520 42,000  Level FlightAware ADS-B
Fri 03:43:31 PM 45.9210 -118.1440 324° Northwest 455 524 42,000  Level FlightAware ADS-B
Fri 03:44:08 PM 45.9860 -118.2110 324° Northwest 452 520 42,000  Level FlightAware ADS-B
Fri 03:44:54 PM 46.0650 -118.2920 325° Northwest 452 520 42,000  Level FlightAware ADS-B
Fri 03:45:06 PM 46.0850 -118.3130 324° Northwest 451 519 42,000  Level FlightAware ADS-B
Fri 03:46:22 PM 46.2050 -118.4380 324° Northwest 452 520 42,000  Level FlightAware ADS-B
Fri 03:47:06 PM 46.2880 -118.5240 324° Northwest 451 519 42,000  Level FlightAware ADS-B
Fri 03:47:48 PM 46.3580 -118.5970 324° Northwest 451 519 42,000  Level FlightAware ADS-B
Fri 03:48:32 PM 46.4320 -118.6740 324° Northwest 448 516 42,000  Level FlightAware ADS-B
Fri 03:49:12 PM 46.5000 -118.7460 324° Northwest 449 517 42,000  Level FlightAware ADS-B
Fri 03:49:52 PM 46.5670 -118.8160 324° Northwest 451 519 42,000  Level FlightAware ADS-B
Fri 03:50:50 PM 46.6650 -118.9210 324° Northwest 452 520 42,000  Level FlightAware ADS-B
Fri 03:51:32 PM 46.7350 -118.9950 324° Northwest 453 521 42,000  Level FlightAware ADS-B
Fri 03:52:12 PM 46.8030 -119.0670 324° Northwest 455 524 42,000  Level FlightAware ADS-B
Fri 03:52:58 PM 46.8830 -119.1520 324° Northwest 457 526 42,000  Level FlightAware ADS-B
Fri 03:53:34 PM 46.9430 -119.2180 323° Northwest 457 526 42,000  Level FlightAware ADS-B
Fri 03:54:22 PM 47.0250 -119.3060 324° Northwest 457 526 42,000  Level FlightAware ADS-B
Fri 03:55:02 PM 47.0920 -119.3780 324° Northwest 458 527 42,000  Level FlightAware ADS-B
Fri 03:55:40 PM 47.1570 -119.4490 323° Northwest 459 528 42,000  Level FlightAware ADS-B
Fri 03:56:27 PM 47.2360 -119.5350 324° Northwest 458 527 42,000  Level FlightAware ADS-B
Fri 03:57:08 PM 47.3070 -119.6130 323° Northwest 460 529 42,000  Level FlightAware ADS-B
Fri 03:57:46 PM 47.3720 -119.6830 324° Northwest 460 529 42,000  Level FlightAware ADS-B
Fri 03:58:30 PM 47.4480 -119.7670 323° Northwest 461 531 42,000  Level FlightAware ADS-B
Fri 03:59:14 PM 47.5210 -119.8480 323° Northwest 462 532 42,000 -273 Level FlightAware ADS-B
Fri 03:59:58 PM 47.5940 -119.9350 321° Northwest 458 527 41,600 -1,071 Descending FlightAware ADS-B
Fri 04:00:38 PM 47.6270 -120.0490 293° West 441 507 40,500 -1,737 Descending FlightAware ADS-B
Fri 04:01:14 PM 47.6410 -120.1510 282° West 426 490 39,400 -2,053 Descending FlightAware ADS-B
Fri 04:01:54 PM 47.6570 -120.2650 282° West 407 468 37,900 -2,049 Descending FlightAware ADS-B
Fri 04:02:36 PM 47.6720 -120.3760 281° West 388 447 36,600 -2,930 Descending FlightAware ADS-B
Fri 04:03:20 PM 47.6890 -120.4910 282° West 394 453 33,700 -3,931 Descending FlightAware ADS-B
Fri 04:04:03 PM 47.7040 -120.6030 281° West 396 456 30,900 -4,000 Descending FlightAware ADS-B
Fri 04:04:44 PM 47.7190 -120.7150 281° West 400 460 28,100 -2,903 Descending FlightAware ADS-B
Fri 04:05:36 PM 47.7360 -120.8430 281° West 407 468 26,400 -1,146 Descending FlightAware ADS-B
Fri 04:06:13 PM 47.7480 -120.9300 282° West 407 468 26,400  Level FlightAware ADS-B
Fri 04:07:01 PM 47.7620 -121.0420 281° West 407 468 26,400  Level FlightAware ADS-B
Fri 04:08:01 PM 47.7810 -121.1820 281° West 407 468 26,400  Level FlightAware ADS-B
Fri 04:08:35 PM 47.7910 -121.2610 281° West 407 468 26,400 -6,184 Level FlightAware ADS-B
Fri 04:10:44 PM 47.8460 -121.6780 281° West 310 357 9,600 -7,277 Descending FlightAware ADS-B
Fri 04:10:56 PM 47.8490 -121.7060 279° West 295 339 9,300 -447 Descending FlightAware ADS-B
Fri 04:12:18 PM 47.8540 -121.7430 281° West 282 325 8,900 -800 Descending FlightAware ADS-B
Fri 04:12:56 PM 47.8690 -121.8640 281° West 275 316 7,700 -2,488 Descending FlightAware ADS-B
Fri 04:13:40 PM 47.8867 -122.0128 281° West 279 321 5,500 -2,625 Descending Seattle Center
Fri 04:14:00 PM 47.8919 -122.0503 282° West 276 318 4,900 -1,400 Descending Seattle Center
Fri 04:14:40 PM 47.9106 -122.1153 293° West 256 295 4,100 -1,377 Descending Seattle Center
Fri 04:15:01 PM 47.9239 -122.1406 308° West 252 290 3,500 -1,258 Descending Seattle Center
Fri 04:15:42 PM 47.9514 -122.1883 311° West 216 249 2,800 -984 Descending Seattle Center
Fri 04:16:02 PM 47.9639 -122.2058 317° Northwest 215 247 2,500 -818 Descending Seattle Center
Fri 04:16:48 PM 47.9931 -122.2481 316° Northwest 165 190 1,900 -677 Descending Seattle Center
Fri 04:17:04 PM 47.9964 -122.2561 302° West 166 191 1,800 -234 Descending Seattle Center
Fri 04:18:05 PM 47.9719 -122.2872 220° Southwest 137 158 1,600 -453 Descending Seattle Center
Fri 04:18:50 PM 47.9386 -122.2881 181° South 140 161 1,000 -689 Descending Seattle Center
Fri 04:19:06 PM 47.9336 -122.2861 165° South 137 158 900 -375 Descending Seattle Center
Fri 04:21:00 PM 47.9070 -122.2816 161° South  Level Estimated

Login

Don't have an account? Register now (free) for customized features, flight alerts, and more!